Latest Weather Observations for Collie East

IDW60801

Issued at 11:05 pm WST Wednesday 30 July 2014 (issued every 30 minutes, with the page automatically refreshed every 10 minutes)

About weather observations | Map of weather stations | Latest weather observations for WA | Other Formats
Station Details ID: 009994 Name: COLLIE EAST Lat: -33.36 Lon: 116.17 Height: 200.0 m
Data from the previous 72 hours. | See also: Recent months at Collie East
Date/Time
WST
Temp
°C
App
Temp
°C
Dew
Point
Rel
Hum
%
Delta-T
°C
Wind Press
QNH
hPa
Press
MSL
hPa
Rain
since 9 am
mm
Dir
 
Spd
km/h
Gust
km/h
Spd
kts
Gust
kts
30/11:00pm 11.3 9.2 9.6 89 0.9 SW 11 24 6 13 - - 0.2
30/10:30pm 11.2 9.1 9.6 90 0.8 SW 11 24 6 13 - - 0.2
30/10:00pm 10.5 9.5 8.9 90 0.8 W 4 11 2 6 - - 0.2
30/09:30pm 10.8 9.4 8.9 88 1.0 W 6 9 3 5 - - 0.2
30/09:00pm 10.6 9.2 9.0 90 0.8 WSW 6 9 3 5 - - 0.2
30/08:30pm 11.0 9.8 9.4 90 0.8 WSW 6 11 3 6 - - 0.2
30/08:00pm 11.4 10.2 9.7 89 0.9 SW 6 11 3 6 - - 0.2
30/07:30pm 11.9 10.6 10.0 88 1.0 WSW 7 11 4 6 - - 0.2
30/07:00pm 12.1 11.1 10.2 88 1.0 WSW 6 11 3 6 - - 0.2
30/06:30pm 12.9 11.4 10.4 85 1.3 SW 9 13 5 7 - - 0.2
30/06:00pm 13.4 11.2 10.8 84 1.4 WSW 13 20 7 11 - - 0.2
30/05:30pm 14.4 12.3 11.2 81 1.7 WSW 13 32 7 17 - - 0.2
30/05:00pm 15.1 12.9 10.9 76 2.3 W 13 22 7 12 - - 0.2
30/04:30pm 15.1 13.7 10.9 76 2.3 W 9 20 5 11 - - 0.2
30/04:00pm 15.8 14.1 12.4 80 1.9 W 13 24 7 13 - - 0.2
30/03:30pm 14.8 14.3 12.5 86 1.3 W 7 15 4 8 - - 0.0
30/03:00pm 14.6 11.8 11.2 80 1.8 W 17 28 9 15 - - 0.0
30/02:30pm 16.0 13.2 9.9 67 3.2 W 15 24 8 13 - - 0.0
30/02:00pm 16.9 14.2 10.3 65 3.5 WNW 15 26 8 14 - - 0.0
30/01:30pm 16.5 12.9 9.9 65 3.5 WNW 19 35 10 19 - - 0.0
30/01:00pm 16.4 13.2 8.6 60 4.0 W 15 30 8 16 - - 0.0
30/12:30pm 16.7 13.8 9.6 63 3.7 WNW 15 28 8 15 - - 0.0
30/12:00pm 15.6 12.6 9.1 65 3.4 W 15 32 8 17 - - 0.0
30/11:30am 15.5 13.4 9.6 68 3.1 WNW 11 24 6 13 - - 0.0
30/11:00am 15.9 12.9 9.3 65 3.4 W 15 32 8 17 - - 0.0
30/10:30am 15.8 13.3 9.7 67 3.2 W 13 20 7 11 - - 0.0
30/10:00am 15.7 12.9 10.0 69 3.0 WNW 15 24 8 13 - - 0.0
30/09:30am 14.9 13.1 10.7 76 2.2 NW 11 20 6 11 - - 0.0
30/09:00am 14.0 12.8 11.5 85 1.3 NW 9 15 5 8 - - 1.8
30/08:30am 13.4 12.5 11.5 88 1.0 WNW 7 13 4 7 - - 1.8
30/08:00am 13.2 11.9 11.3 88 1.0 NW 9 13 5 7 - - 1.8
30/07:30am 12.9 11.9 11.1 89 1.0 NNW 7 9 4 5 - - 1.8
30/07:00am 12.9 11.9 11.1 89 1.0 NW 7 11 4 6 - - 1.8
30/06:30am 12.9 11.6 11.1 89 1.0 NNW 9 13 5 7 - - 1.8
30/06:00am 12.9 11.6 11.1 89 1.0 NNW 9 13 5 7 - - 1.8
30/05:30am 12.9 12.0 11.5 91 0.7 NW 7 13 4 7 - - 1.8
30/05:00am 13.1 11.9 11.5 90 0.9 NW 9 15 5 8 - - 1.6
30/04:30am 13.1 11.9 11.5 90 0.9 NW 9 15 5 8 - - 1.6
30/04:00am 13.1 11.5 11.5 90 0.9 NW 11 20 6 11 - - 1.6
30/03:30am 12.9 12.0 11.5 91 0.7 NW 7 13 4 7 - - 1.6
30/03:00am 12.6 10.9 11.2 91 0.7 NW 11 17 6 9 - - 1.6
30/02:30am 12.4 11.0 11.0 91 0.7 NW 9 15 5 8 - - 1.6
30/02:00am 12.5 11.1 10.9 90 0.8 NW 9 15 5 8 - - 1.6
30/01:30am 12.5 11.0 10.7 89 0.9 WNW 9 15 5 8 - - 1.6
30/01:00am 12.5 11.5 10.9 90 0.8 N 7 9 4 5 - - 1.6
30/12:30am 12.8 11.8 11.0 89 1.0 NW 7 11 4 6 - - 1.6
30/12:00am 12.9 11.6 11.1 89 1.0 NNW 9 11 5 6 - - 1.6
 
Date/Time
WST
Temp
°C
App
Temp
°C
Dew
Point
Rel
Hum
%
Delta-T
°C
Wind Press
QNH
hPa
Press
MSL
hPa
Rain
since 9 am
mm
Dir
 
Spd
km/h
Gust
km/h
Spd
kts
Gust
kts
29/11:30pm 12.9 12.0 11.3 90 0.9 NNW 7 11 4 6 - - 1.6
29/11:00pm 13.1 12.3 11.7 91 0.8 NW 7 11 4 6 - - 1.6
29/10:30pm 13.1 11.9 11.7 91 0.8 NW 9 13 5 7 - - 1.6
29/10:00pm 13.0 12.2 11.7 92 0.7 NW 7 11 4 6 - - 1.6
29/09:30pm 13.0 12.3 11.9 93 0.6 NW 7 11 4 6 - - 1.6
29/09:00pm 12.9 12.1 11.8 93 0.6 WNW 7 13 4 7 - - 1.4
29/08:30pm 12.8 11.6 11.7 93 0.6 NW 9 13 5 7 - - 1.2
29/08:00pm 12.9 12.3 11.8 93 0.6 WNW 6 11 3 6 - - 1.0
29/07:30pm 12.9 11.7 11.6 92 0.7 NW 9 19 5 10 - - 0.4
29/07:00pm 13.0 11.8 11.7 92 0.7 WNW 9 17 5 9 - - 0.4
29/06:30pm 13.1 11.2 11.7 91 0.8 NW 13 20 7 11 - - 0.4
29/06:00pm 13.5 11.4 11.0 85 1.3 NNW 13 19 7 10 - - 0.2
29/05:30pm 13.2 11.6 10.2 82 1.6 NW 9 15 5 8 - - 0.2
29/05:00pm 13.6 11.5 11.1 85 1.3 WNW 13 20 7 11 - - 0.2
29/04:30pm 14.4 12.1 11.6 83 1.5 NW 15 22 8 12 - - 0.0
29/04:00pm 15.6 13.2 9.9 69 3.0 WNW 13 20 7 11 - - 0.0
29/03:30pm 15.8 13.9 10.6 71 2.8 WNW 11 17 6 9 - - 0.0
29/03:00pm 16.0 14.0 10.3 69 3.0 WNW 11 22 6 12 - - 0.0
29/02:30pm 16.0 13.0 10.5 70 2.9 WNW 17 26 9 14 - - 0.0
29/02:00pm 16.1 13.7 10.2 68 3.1 WNW 13 26 7 14 - - 0.0
29/01:30pm 16.8 15.0 10.9 68 3.2 WNW 11 24 6 13 - - 0.0
29/01:00pm 16.1 13.4 10.2 68 3.1 NW 15 24 8 13 - - 0.0
29/12:30pm 16.4 13.7 10.3 67 3.3 WNW 15 28 8 15 - - 0.0
29/12:00pm 16.0 14.0 10.3 69 3.0 WNW 11 17 6 9 - - 0.0
29/11:30am 15.7 13.0 10.5 71 2.8 WNW 15 26 8 14 - - 0.0
29/11:00am 15.4 13.5 10.4 72 2.7 WNW 11 20 6 11 - - 0.0
29/10:30am 15.4 13.3 11.2 76 2.3 WNW 13 20 7 11 - - 0.0
29/10:00am 14.6 13.8 11.6 82 1.6 NW 7 13 4 7 - - 0.0
29/09:30am 13.9 12.6 11.2 84 1.4 NW 9 13 5 7 - - 0.0
29/09:00am 12.7 12.0 11.9 95 0.4 NNW 7 9 4 5 - - 2.0
29/08:30am 12.2 12.6 11.4 95 0.4 CALM 0 0 0 0 - - 2.0
29/08:00am 11.3 11.5 10.5 95 0.4 CALM 0 0 0 0 - - 2.0
29/07:30am 10.8 10.9 10.0 95 0.4 CALM 0 0 0 0 - - 2.0
29/07:00am 10.7 10.7 9.9 95 0.4 CALM 0 0 0 0 - - 2.0
29/06:30am 10.5 10.5 9.7 95 0.4 CALM 0 0 0 0 - - 2.0
29/06:00am 10.2 10.1 9.3 94 0.5 CALM 0 0 0 0 - - 2.0
29/05:30am 10.1 9.9 9.2 94 0.5 CALM 0 0 0 0 - - 2.0
29/05:00am 11.7 10.7 10.9 95 0.4 NNW 7 9 4 5 - - 2.0
29/04:30am 12.0 10.7 11.4 96 0.3 NW 9 15 5 8 - - 2.0
29/04:00am 10.8 10.5 10.0 95 0.4 NNW 2 9 1 5 - - 1.6
29/03:30am 11.1 10.2 10.5 96 0.3 NNW 6 7 3 4 - - 1.6
29/03:00am 10.6 10.6 9.8 95 0.4 CALM 0 7 0 4 - - 1.6
29/02:30am 9.6 9.3 8.8 95 0.4 CALM 0 0 0 0 - - 1.6
29/02:00am 9.0 8.6 8.2 95 0.4 CALM 0 0 0 0 - - 1.6
29/01:30am 9.8 8.4 9.0 95 0.4 NNW 6 7 3 4 - - 1.6
29/01:00am 9.2 7.5 8.4 95 0.4 NW 7 9 4 5 - - 1.6
29/12:30am 9.4 9.1 8.6 95 0.4 CALM 0 0 0 0 - - 1.6
29/12:00am 8.8 8.3 7.9 94 0.4 CALM 0 0 0 0 - - 1.6
 
Date/Time
WST
Temp
°C
App
Temp
°C
Dew
Point
Rel
Hum
%
Delta-T
°C
Wind Press
QNH
hPa
Press
MSL
hPa
Rain
since 9 am
mm
Dir
 
Spd
km/h
Gust
km/h
Spd
kts
Gust
kts
28/11:30pm 9.8 9.6 8.9 94 0.4 CALM 0 7 0 4 - - 1.6
28/11:00pm 9.6 9.3 8.7 94 0.4 CALM 0 0 0 0 - - 1.6
28/10:30pm 8.9 8.4 8.0 94 0.4 CALM 0 0 0 0 - - 1.2
28/10:00pm 8.3 7.7 7.2 93 0.5 CALM 0 0 0 0 - - 1.2
28/09:30pm 8.6 8.0 7.4 92 0.6 CALM 0 0 0 0 - - 1.2
28/09:00pm 9.8 9.5 8.6 92 0.6 CALM 0 0 0 0 - - 1.2
28/08:30pm 10.4 9.0 9.0 91 0.7 N 6 7 3 4 - - 1.2
28/08:00pm 10.7 9.3 9.0 89 0.9 NNW 6 7 3 4 - - 1.2
28/07:30pm 12.1 11.1 10.2 88 1.0 NW 6 9 3 5 - - 1.2
28/07:00pm 12.3 11.2 10.7 90 0.8 NNW 7 9 4 5 - - 1.2
28/06:30pm 12.5 11.5 10.9 90 0.8 NNW 7 11 4 6 - - 1.2
28/06:00pm 13.0 12.1 11.2 89 1.0 NNW 7 9 4 5 - - 1.2
28/05:30pm 13.4 12.8 11.8 90 0.9 NW 6 9 3 5 - - 1.2
28/05:00pm 13.7 12.9 11.7 88 1.1 NW 7 11 4 6 - - 1.2
28/04:30pm 14.1 13.0 12.1 88 1.1 NW 9 15 5 8 - - 1.2
28/04:00pm 14.0 12.5 11.9 87 1.1 WNW 11 26 6 14 - - 1.2
28/03:30pm 14.7 12.6 12.4 86 1.3 WNW 15 22 8 12 - - 1.2
28/03:00pm 14.0 11.8 12.0 88 1.1 NW 15 22 8 12 - - 1.0
28/02:30pm 15.1 13.3 12.2 83 1.6 WNW 13 20 7 11 - - 0.2
28/01:00pm 16.3 13.3 10.8 70 3.0 WNW 17 26 9 14 - - 0.2
28/12:30pm 15.8 13.3 11.0 73 2.6 WNW 15 30 8 16 - - 0.2
28/12:00pm 15.7 13.3 11.3 75 2.4 WNW 15 30 8 16 - - 0.2
28/11:30am 14.0 12.0 11.5 85 1.3 WNW 13 20 7 11 - - 0.2
28/11:00am 14.2 11.9 10.6 79 1.9 W 13 24 7 13 - - 0.0
28/10:30am 15.6 13.1 11.0 74 2.5 WNW 15 33 8 18 - - 0.0
28/10:00am 15.8 14.0 11.0 73 2.6 WNW 11 19 6 10 - - 0.0
28/09:30am 14.9 13.7 11.5 80 1.8 NW 9 17 5 9 - - 0.0
28/09:00am 13.7 12.7 11.0 84 1.4 WNW 7 11 4 6 - - 1.8
28/08:30am 12.2 11.4 10.9 92 0.7 NNW 6 7 3 4 - - 1.8
28/08:00am 9.8 9.2 8.9 94 0.4 NNW 2 9 1 5 - - 1.8
28/07:30am 8.6 8.0 7.5 93 0.5 CALM 0 0 0 0 - - 1.8
28/07:00am 9.4 7.9 8.3 93 0.5 N 6 9 3 5 - - 1.8
28/06:30am 10.3 9.1 9.4 94 0.5 N 6 7 3 4 - - 1.8
28/06:00am 9.7 9.4 8.6 93 0.5 CALM 0 0 0 0 - - 1.8
28/05:30am 9.5 8.4 8.3 92 0.6 NW 4 6 2 3 - - 1.8
28/05:00am 10.7 9.9 9.6 93 0.6 NW 4 7 2 4 - - 1.8
28/04:30am 11.1 9.8 10.0 93 0.6 NNW 7 9 4 5 - - 1.8
28/04:00am 11.5 10.3 10.4 93 0.6 WNW 7 15 4 8 - - 1.6
28/03:30am 11.0 9.9 9.8 92 0.6 NNW 6 7 3 4 - - 1.2
28/03:00am 11.5 9.9 10.2 92 0.7 NW 9 13 5 7 - - 1.2
28/02:30am 11.0 9.7 9.9 93 0.6 NNW 7 11 4 6 - - 1.2
28/02:00am 10.8 9.4 9.7 93 0.6 NW 7 11 4 6 - - 1.0
28/01:30am 10.6 9.2 9.4 92 0.6 NNW 7 9 4 5 - - 1.0
28/01:00am 10.2 10.0 9.0 92 0.6 CALM 0 0 0 0 - - 0.8
28/12:30am 9.9 8.4 8.5 91 0.7 NNW 6 9 3 5 - - 0.6
28/12:00am 10.6 9.4 9.4 92 0.6 NW 6 9 3 5 - - 0.6
 
Date/Time
WST
Temp
°C
App
Temp
°C
Dew
Point
Rel
Hum
%
Delta-T
°C
Wind Press
QNH
hPa
Press
MSL
hPa
Rain
since 9 am
mm
Dir
 
Spd
km/h
Gust
km/h
Spd
kts
Gust
kts
27/11:30pm 10.5 9.1 8.9 90 0.8 NNW 6 7 3 4 - - 0.6

Other Formats:

Comma delimited format used in spreadsheet applications
http://www.bom.gov.au/fwo/IDW60801/IDW60801.95621.axf

JavaScript Object Notation format (JSON) in row-major order
http://www.bom.gov.au/fwo/IDW60801/IDW60801.95621.json